Skip Navigation LinksHome page > Weather > Current weather Skip Navigation Links

Current Weather

Jakutsk, Russia

For information only: do not use for flight planning or navigation.
Latest weather
Observation time Saturday, October 10, 2015 2:00 AM JST
Local time Saturday, October 10, 2015 2:37 AM JST
Flight conditions Marginal Visual Meteorological Conditions
Wind direction South (190°)
Wind speed 4 mph
Visibility 6.2 mi.
Sky condition
Ceiling 2,000 ft. broken clouds with cumulonimbus
Cloud layer scattered clouds 800 ft.
Cloud layer broken clouds with cumulonimbus 2,000 ft.
Temperature 34°F
Dewpoint 34°F
Altimeter 30.24 in.Hg
QF 2:39 PM
Derived measurements
Relative humidity 100%
Wind chill 30°F
Density altitude -1637 ft.
No significant changes expected in the next two hours.
METAR UEEE 091700Z 19002MPS 9999 SCT008 BKN020CB 01/01 Q1024 R23L/190055 NOSIG RMK QFE759


Location code

InnerDrive.Weather 4.0.5722.1 Release CLR 4.0.30319.34014
Copyright ©2015 Inner Drive Technology. All rights reserved. Portions Copyright ©1986-2015 David Braverman.

Find weather

Site navigation

Skip Navigation Links

Place info

Page info

PayPal - The safer, easier way to pay online!

Return home.

Copyright ©2015 Inner Drive Technology. Purveyors of fine, hand-crafted computer software. Page printed 2015-10-09T17:37:30 UTC.